X  Schlie├čen METAR Luftfahrt Wetterdaten     EDLV Weeze Airport
Temperatur
20°C Temperatur
13°C Taupunkt
64% Feuchtigkeit



Wind
24 KM/S
15 MPS
7 M/S
13 KTS



220°
SW
Aktuelle Wetterlage

Meistens vereinzelte Wolken Meistens vereinzelte Wolken
Luftdruck 1009.82 (hPa) - 29.82 (inHg)
Sichtweite 6 (Meile) - 9.7 (Km)
Flughafen
Flughafen Code EDLV

Position : Weeze Airport
Entfernung: 23 (Km)

Metar:
EDLV 160820Z 22013KT 9999 SCT028 20/13 Q1010

Zeit: 16-07-2024 10:20 CEST